sensor_id;sensor_type;location;lat;lon;timestamp;P1;durP1;ratioP1;P2;durP2;ratioP2
67757;SDS011;54562;47.620;18.786;2022-08-23T00:02:37;25.40;;;10.50;;
67757;SDS011;54562;47.620;18.786;2022-08-23T00:05:47;26.60;;;11.10;;
67757;SDS011;54562;47.620;18.786;2022-08-23T00:08:55;30.00;;;10.90;;
67757;SDS011;54562;47.620;18.786;2022-08-23T00:12:12;29.50;;;10.90;;
67757;SDS011;54562;47.620;18.786;2022-08-23T00:15:23;25.70;;;11.80;;
67757;SDS011;54562;47.620;18.786;2022-08-23T00:18:31;22.40;;;11.90;;
67757;SDS011;54562;47.620;18.786;2022-08-23T00:21:40;30.40;;;11.20;;
67757;SDS011;54562;47.620;18.786;2022-08-23T00:24:48;24.10;;;11.50;;
67757;SDS011;54562;47.620;18.786;2022-08-23T00:27:56;40.60;;;11.30;;
67757;SDS011;54562;47.620;18.786;2022-08-23T00:31:06;27.70;;;11.20;;
67757;SDS011;54562;47.620;18.786;2022-08-23T00:34:15;21.40;;;11.80;;
67757;SDS011;54562;47.620;18.786;2022-08-23T00:37:26;26.30;;;11.50;;
67757;SDS011;54562;47.620;18.786;2022-08-23T00:40:35;33.70;;;11.60;;
67757;SDS011;54562;47.620;18.786;2022-08-23T00:43:43;29.50;;;11.90;;
67757;SDS011;54562;47.620;18.786;2022-08-23T00:47:09;27.90;;;11.10;;
67757;SDS011;54562;47.620;18.786;2022-08-23T00:50:42;34.00;;;11.10;;
67757;SDS011;54562;47.620;18.786;2022-08-23T00:53:56;40.00;;;11.20;;
67757;SDS011;54562;47.620;18.786;2022-08-23T00:57:09;68.70;;;12.30;;
67757;SDS011;54562;47.620;18.786;2022-08-23T01:00:23;37.60;;;10.30;;
67757;SDS011;54562;47.620;18.786;2022-08-23T01:03:35;49.00;;;12.00;;
67757;SDS011;54562;47.620;18.786;2022-08-23T01:06:49;40.40;;;11.20;;
67757;SDS011;54562;47.620;18.786;2022-08-23T01:10:08;31.20;;;10.90;;
67757;SDS011;54562;47.620;18.786;2022-08-23T01:13:28;45.90;;;10.90;;
67757;SDS011;54562;47.620;18.786;2022-08-23T01:16:44;32.70;;;10.60;;
67757;SDS011;54562;47.620;18.786;2022-08-23T01:19:57;50.40;;;12.00;;
67757;SDS011;54562;47.620;18.786;2022-08-23T01:23:18;49.00;;;12.20;;
67757;SDS011;54562;47.620;18.786;2022-08-23T01:26:34;41.60;;;11.30;;
67757;SDS011;54562;47.620;18.786;2022-08-23T01:29:43;41.10;;;11.70;;
67757;SDS011;54562;47.620;18.786;2022-08-23T01:32:53;45.30;;;12.30;;
67757;SDS011;54562;47.620;18.786;2022-08-23T01:36:04;55.80;;;11.80;;
67757;SDS011;54562;47.620;18.786;2022-08-23T01:39:14;71.10;;;12.70;;
67757;SDS011;54562;47.620;18.786;2022-08-23T01:42:22;105.90;;;13.30;;
67757;SDS011;54562;47.620;18.786;2022-08-23T01:45:31;55.70;;;12.00;;
67757;SDS011;54562;47.620;18.786;2022-08-23T01:48:43;74.90;;;11.70;;
67757;SDS011;54562;47.620;18.786;2022-08-23T01:51:52;34.90;;;10.30;;
67757;SDS011;54562;47.620;18.786;2022-08-23T01:55:00;94.40;;;13.00;;
67757;SDS011;54562;47.620;18.786;2022-08-23T01:58:08;84.90;;;11.80;;
67757;SDS011;54562;47.620;18.786;2022-08-23T02:01:17;26.00;;;10.60;;
67757;SDS011;54562;47.620;18.786;2022-08-23T02:04:26;25.60;;;10.10;;
67757;SDS011;54562;47.620;18.786;2022-08-23T02:07:35;116.40;;;12.80;;
67757;SDS011;54562;47.620;18.786;2022-08-23T02:10:45;99.60;;;13.00;;
67757;SDS011;54562;47.620;18.786;2022-08-23T02:13:54;82.30;;;13.60;;
67757;SDS011;54562;47.620;18.786;2022-08-23T02:17:04;26.30;;;12.60;;
67757;SDS011;54562;47.620;18.786;2022-08-23T02:20:13;85.40;;;13.30;;
67757;SDS011;54562;47.620;18.786;2022-08-23T02:23:21;68.70;;;13.00;;
67757;SDS011;54562;47.620;18.786;2022-08-23T02:26:29;20.70;;;12.90;;
67757;SDS011;54562;47.620;18.786;2022-08-23T02:29:40;113.90;;;14.00;;
67757;SDS011;54562;47.620;18.786;2022-08-23T02:32:49;49.30;;;13.10;;
67757;SDS011;54562;47.620;18.786;2022-08-23T02:39:06;61.20;;;12.40;;
67757;SDS011;54562;47.620;18.786;2022-08-23T02:42:14;43.50;;;12.30;;
67757;SDS011;54562;47.620;18.786;2022-08-23T02:45:23;46.30;;;12.30;;
67757;SDS011;54562;47.620;18.786;2022-08-23T02:48:31;41.30;;;12.40;;
67757;SDS011;54562;47.620;18.786;2022-08-23T02:51:41;31.60;;;11.90;;
67757;SDS011;54562;47.620;18.786;2022-08-23T02:54:50;32.10;;;13.30;;
67757;SDS011;54562;47.620;18.786;2022-08-23T02:58:02;25.80;;;12.10;;
67757;SDS011;54562;47.620;18.786;2022-08-23T03:01:16;53.10;;;13.10;;
67757;SDS011;54562;47.620;18.786;2022-08-23T03:04:26;41.40;;;13.00;;
67757;SDS011;54562;47.620;18.786;2022-08-23T03:07:35;54.90;;;12.70;;
67757;SDS011;54562;47.620;18.786;2022-08-23T03:10:45;53.30;;;12.40;;
67757;SDS011;54562;47.620;18.786;2022-08-23T03:13:54;64.20;;;13.20;;
67757;SDS011;54562;47.620;18.786;2022-08-23T03:17:02;72.00;;;12.70;;
67757;SDS011;54562;47.620;18.786;2022-08-23T03:20:11;128.70;;;13.70;;
67757;SDS011;54562;47.620;18.786;2022-08-23T03:23:20;90.20;;;13.30;;
67757;SDS011;54562;47.620;18.786;2022-08-23T03:26:28;119.20;;;12.90;;
67757;SDS011;54562;47.620;18.786;2022-08-23T03:29:36;42.60;;;11.50;;
67757;SDS011;54562;47.620;18.786;2022-08-23T03:32:44;62.80;;;12.80;;
67757;SDS011;54562;47.620;18.786;2022-08-23T03:35:58;32.80;;;11.50;;
67757;SDS011;54562;47.620;18.786;2022-08-23T03:39:07;78.60;;;13.70;;
67757;SDS011;54562;47.620;18.786;2022-08-23T03:42:15;77.40;;;12.70;;
67757;SDS011;54562;47.620;18.786;2022-08-23T03:45:32;122.40;;;12.80;;
67757;SDS011;54562;47.620;18.786;2022-08-23T03:48:40;165.50;;;12.80;;
67757;SDS011;54562;47.620;18.786;2022-08-23T03:51:49;70.60;;;11.40;;
67757;SDS011;54562;47.620;18.786;2022-08-23T03:54:57;36.50;;;9.70;;
67757;SDS011;54562;47.620;18.786;2022-08-23T03:58:05;29.30;;;9.90;;
67757;SDS011;54562;47.620;18.786;2022-08-23T04:01:13;39.10;;;10.20;;
67757;SDS011;54562;47.620;18.786;2022-08-23T04:04:22;45.40;;;10.50;;
67757;SDS011;54562;47.620;18.786;2022-08-23T04:10:39;79.50;;;10.10;;
67757;SDS011;54562;47.620;18.786;2022-08-23T04:13:47;59.20;;;10.00;;
67757;SDS011;54562;47.620;18.786;2022-08-23T04:16:56;47.20;;;9.60;;
67757;SDS011;54562;47.620;18.786;2022-08-23T04:20:04;35.90;;;9.50;;
67757;SDS011;54562;47.620;18.786;2022-08-23T04:23:13;53.40;;;9.70;;
67757;SDS011;54562;47.620;18.786;2022-08-23T04:26:22;90.30;;;11.10;;
67757;SDS011;54562;47.620;18.786;2022-08-23T04:29:34;71.20;;;10.50;;
67757;SDS011;54562;47.620;18.786;2022-08-23T04:35:50;20.00;;;9.30;;
67757;SDS011;54562;47.620;18.786;2022-08-23T04:38:58;31.90;;;10.40;;
67757;SDS011;54562;47.620;18.786;2022-08-23T04:42:07;35.20;;;10.50;;
67757;SDS011;54562;47.620;18.786;2022-08-23T04:45:27;29.60;;;10.00;;
67757;SDS011;54562;47.620;18.786;2022-08-23T04:48:38;23.80;;;10.40;;
67757;SDS011;54562;47.620;18.786;2022-08-23T04:51:47;22.60;;;10.10;;
67757;SDS011;54562;47.620;18.786;2022-08-23T04:54:56;29.60;;;9.90;;
67757;SDS011;54562;47.620;18.786;2022-08-23T04:58:04;20.20;;;9.40;;
67757;SDS011;54562;47.620;18.786;2022-08-23T05:01:13;18.90;;;9.20;;
67757;SDS011;54562;47.620;18.786;2022-08-23T05:04:21;17.20;;;8.90;;
67757;SDS011;54562;47.620;18.786;2022-08-23T05:07:29;17.00;;;8.40;;
67757;SDS011;54562;47.620;18.786;2022-08-23T05:10:46;21.10;;;9.70;;
67757;SDS011;54562;47.620;18.786;2022-08-23T05:13:54;21.60;;;10.10;;
67757;SDS011;54562;47.620;18.786;2022-08-23T05:17:02;20.60;;;9.60;;
67757;SDS011;54562;47.620;18.786;2022-08-23T05:20:12;21.30;;;9.20;;
67757;SDS011;54562;47.620;18.786;2022-08-23T05:23:20;22.50;;;9.80;;
67757;SDS011;54562;47.620;18.786;2022-08-23T05:26:36;21.90;;;10.20;;
67757;SDS011;54562;47.620;18.786;2022-08-23T05:29:44;18.00;;;9.50;;
67757;SDS011;54562;47.620;18.786;2022-08-23T05:32:52;25.00;;;10.80;;
67757;SDS011;54562;47.620;18.786;2022-08-23T05:36:00;19.80;;;9.80;;
67757;SDS011;54562;47.620;18.786;2022-08-23T05:42:24;18.80;;;9.20;;
67757;SDS011;54562;47.620;18.786;2022-08-23T05:45:32;19.10;;;9.60;;
67757;SDS011;54562;47.620;18.786;2022-08-23T05:48:44;16.50;;;9.10;;
67757;SDS011;54562;47.620;18.786;2022-08-23T05:51:54;15.40;;;8.60;;
67757;SDS011;54562;47.620;18.786;2022-08-23T06:33:29;15.40;;;7.70;;
67757;SDS011;54562;47.620;18.786;2022-08-23T06:46:17;16.10;;;8.60;;
67757;SDS011;54562;47.620;18.786;2022-08-23T06:50:43;17.50;;;9.60;;
67757;SDS011;54562;47.620;18.786;2022-08-23T09:29:02;14.40;;;9.20;;
67757;SDS011;54562;47.620;18.786;2022-08-23T10:06:50;13.60;;;8.60;;
67757;SDS011;54562;47.620;18.786;2022-08-23T10:10:32;12.20;;;8.10;;
67757;SDS011;54562;47.620;18.786;2022-08-23T10:31:30;13.00;;;8.40;;
67757;SDS011;54562;47.620;18.786;2022-08-23T10:54:59;15.50;;;8.40;;
67757;SDS011;54562;47.620;18.786;2022-08-23T11:35:06;12.60;;;8.50;;
67757;SDS011;54562;47.620;18.786;2022-08-23T16:10:13;8.50;;;5.80;;
67757;SDS011;54562;47.620;18.786;2022-08-23T16:13:33;7.70;;;5.30;;
67757;SDS011;54562;47.620;18.786;2022-08-23T16:16:48;9.50;;;5.30;;
67757;SDS011;54562;47.620;18.786;2022-08-23T16:20:04;9.00;;;5.20;;
67757;SDS011;54562;47.620;18.786;2022-08-23T16:23:18;7.90;;;5.50;;
67757;SDS011;54562;47.620;18.786;2022-08-23T16:26:50;9.70;;;5.10;;
67757;SDS011;54562;47.620;18.786;2022-08-23T16:30:12;9.10;;;5.20;;
67757;SDS011;54562;47.620;18.786;2022-08-23T16:33:33;8.90;;;5.10;;
67757;SDS011;54562;47.620;18.786;2022-08-23T16:36:45;7.80;;;4.40;;
67757;SDS011;54562;47.620;18.786;2022-08-23T16:40:02;8.10;;;4.70;;
67757;SDS011;54562;47.620;18.786;2022-08-23T16:43:44;8.20;;;4.80;;
67757;SDS011;54562;47.620;18.786;2022-08-23T16:51:42;6.70;;;4.40;;
67757;SDS011;54562;47.620;18.786;2022-08-23T17:33:25;9.30;;;4.40;;
67757;SDS011;54562;47.620;18.786;2022-08-23T17:36:33;7.50;;;4.30;;
67757;SDS011;54562;47.620;18.786;2022-08-23T17:39:40;9.60;;;4.60;;
67757;SDS011;54562;47.620;18.786;2022-08-23T17:42:46;7.50;;;4.40;;
67757;SDS011;54562;47.620;18.786;2022-08-23T17:45:54;6.50;;;4.00;;
67757;SDS011;54562;47.620;18.786;2022-08-23T17:48:59;7.40;;;4.70;;
67757;SDS011;54562;47.620;18.786;2022-08-23T17:52:05;8.60;;;4.60;;
67757;SDS011;54562;47.620;18.786;2022-08-23T17:55:29;8.20;;;4.60;;
67757;SDS011;54562;47.620;18.786;2022-08-23T17:58:39;7.60;;;4.40;;
67757;SDS011;54562;47.620;18.786;2022-08-23T18:01:45;7.10;;;4.20;;
67757;SDS011;54562;47.620;18.786;2022-08-23T18:04:50;10.30;;;4.80;;
67757;SDS011;54562;47.620;18.786;2022-08-23T18:08:15;8.30;;;4.50;;
